sensor_id;sensor_type;location;lat;lon;timestamp;temperature;humidity
21085;DHT22;72320;50.082;20.000;2024-02-23T00:00:53;25.10;32.30
21085;DHT22;72320;50.082;20.000;2024-02-23T00:03:19;25.10;32.20
21085;DHT22;72320;50.082;20.000;2024-02-23T00:05:45;25.10;32.30
21085;DHT22;72320;50.082;20.000;2024-02-23T00:08:10;25.10;32.30
21085;DHT22;72320;50.082;20.000;2024-02-23T00:10:36;25.10;32.30
21085;DHT22;72320;50.082;20.000;2024-02-23T00:13:02;25.20;32.30
21085;DHT22;72320;50.082;20.000;2024-02-23T00:57:14;25.20;32.80
21085;DHT22;72320;50.082;20.000;2024-02-23T00:59:41;25.20;32.80
21085;DHT22;72320;50.082;20.000;2024-02-23T01:02:06;25.20;32.80
21085;DHT22;72320;50.082;20.000;2024-02-23T01:04:32;25.20;32.80
21085;DHT22;72320;50.082;20.000;2024-02-23T01:06:58;25.20;32.90
21085;DHT22;72320;50.082;20.000;2024-02-23T01:09:24;25.20;32.90
21085;DHT22;72320;50.082;20.000;2024-02-23T01:11:49;25.30;33.10
21085;DHT22;72320;50.082;20.000;2024-02-23T01:14:16;25.20;33.50
21085;DHT22;72320;50.082;20.000;2024-02-23T01:16:42;25.20;33.30
21085;DHT22;72320;50.082;20.000;2024-02-23T01:19:08;25.20;33.30
21085;DHT22;72320;50.082;20.000;2024-02-23T01:21:34;25.10;33.40
21085;DHT22;72320;50.082;20.000;2024-02-23T01:24:00;25.10;33.90
21085;DHT22;72320;50.082;20.000;2024-02-23T01:26:26;25.10;34.40
21085;DHT22;72320;50.082;20.000;2024-02-23T01:28:53;24.90;34.20
21085;DHT22;72320;50.082;20.000;2024-02-23T01:31:19;24.90;34.40
21085;DHT22;72320;50.082;20.000;2024-02-23T01:33:45;24.80;34.80
21085;DHT22;72320;50.082;20.000;2024-02-23T01:36:11;24.70;35.00
21085;DHT22;72320;50.082;20.000;2024-02-23T01:38:36;24.60;35.00
21085;DHT22;72320;50.082;20.000;2024-02-23T01:41:03;24.60;35.50
21085;DHT22;72320;50.082;20.000;2024-02-23T01:43:29;24.60;35.60
21085;DHT22;72320;50.082;20.000;2024-02-23T01:45:55;24.60;36.00
21085;DHT22;72320;50.082;20.000;2024-02-23T01:48:21;24.60;35.90
21085;DHT22;72320;50.082;20.000;2024-02-23T01:50:47;24.50;36.00
21085;DHT22;72320;50.082;20.000;2024-02-23T01:53:13;24.60;36.10
21085;DHT22;72320;50.082;20.000;2024-02-23T01:55:40;24.60;36.70
21085;DHT22;72320;50.082;20.000;2024-02-23T01:58:07;24.70;36.20
21085;DHT22;72320;50.082;20.000;2024-02-23T02:00:34;24.70;36.20
21085;DHT22;72320;50.082;20.000;2024-02-23T02:03:01;24.70;36.10
21085;DHT22;72320;50.082;20.000;2024-02-23T02:05:27;24.70;36.10
21085;DHT22;72320;50.082;20.000;2024-02-23T02:07:53;24.60;36.10
21085;DHT22;72320;50.082;20.000;2024-02-23T02:10:24;24.60;36.00
21085;DHT22;72320;50.082;20.000;2024-02-23T02:12:52;24.70;36.10
21085;DHT22;72320;50.082;20.000;2024-02-23T02:15:18;24.70;36.10
21085;DHT22;72320;50.082;20.000;2024-02-23T02:17:45;24.70;36.10
21085;DHT22;72320;50.082;20.000;2024-02-23T02:20:11;24.70;36.00
21085;DHT22;72320;50.082;20.000;2024-02-23T02:22:38;24.70;35.90
21085;DHT22;72320;50.082;20.000;2024-02-23T02:25:05;24.70;35.90
21085;DHT22;72320;50.082;20.000;2024-02-23T02:27:32;24.60;35.80
21085;DHT22;72320;50.082;20.000;2024-02-23T02:29:58;24.60;36.60
21085;DHT22;72320;50.082;20.000;2024-02-23T02:32:24;24.60;35.90
21085;DHT22;72320;50.082;20.000;2024-02-23T02:34:49;24.70;35.80
21085;DHT22;72320;50.082;20.000;2024-02-23T02:37:15;24.70;35.70
21085;DHT22;72320;50.082;20.000;2024-02-23T02:39:42;24.80;36.40
21085;DHT22;72320;50.082;20.000;2024-02-23T02:42:07;24.80;35.60
21085;DHT22;72320;50.082;20.000;2024-02-23T02:44:34;24.80;35.60
21085;DHT22;72320;50.082;20.000;2024-02-23T02:47:00;24.80;35.50
21085;DHT22;72320;50.082;20.000;2024-02-23T02:49:26;24.90;35.40
21085;DHT22;72320;50.082;20.000;2024-02-23T02:51:52;24.80;35.40
21085;DHT22;72320;50.082;20.000;2024-02-23T02:54:18;24.90;35.30
21085;DHT22;72320;50.082;20.000;2024-02-23T02:56:44;25.00;35.30
21085;DHT22;72320;50.082;20.000;2024-02-23T02:59:11;24.90;35.20
21085;DHT22;72320;50.082;20.000;2024-02-23T03:01:38;24.90;35.90
21085;DHT22;72320;50.082;20.000;2024-02-23T03:04:05;24.90;35.30
21085;DHT22;72320;50.082;20.000;2024-02-23T03:06:31;24.90;35.30
21085;DHT22;72320;50.082;20.000;2024-02-23T03:08:56;24.90;35.30
21085;DHT22;72320;50.082;20.000;2024-02-23T03:11:22;24.90;35.10
21085;DHT22;72320;50.082;20.000;2024-02-23T03:13:48;24.90;35.00
21085;DHT22;72320;50.082;20.000;2024-02-23T03:16:17;24.90;34.90
21085;DHT22;72320;50.082;20.000;2024-02-23T03:18:44;24.90;34.90
21085;DHT22;72320;50.082;20.000;2024-02-23T03:21:11;24.90;34.80
21085;DHT22;72320;50.082;20.000;2024-02-23T03:23:36;24.90;34.80
21085;DHT22;72320;50.082;20.000;2024-02-23T03:26:03;24.90;34.70
21085;DHT22;72320;50.082;20.000;2024-02-23T03:28:28;25.00;34.60
21085;DHT22;72320;50.082;20.000;2024-02-23T03:30:54;25.10;34.60
21085;DHT22;72320;50.082;20.000;2024-02-23T03:33:20;25.10;34.60
21085;DHT22;72320;50.082;20.000;2024-02-23T03:35:46;25.10;34.50
21085;DHT22;72320;50.082;20.000;2024-02-23T03:38:12;25.10;34.40
21085;DHT22;72320;50.082;20.000;2024-02-23T03:40:37;25.00;34.30
21085;DHT22;72320;50.082;20.000;2024-02-23T03:43:03;25.10;34.20
21085;DHT22;72320;50.082;20.000;2024-02-23T03:45:31;25.10;34.10
21085;DHT22;72320;50.082;20.000;2024-02-23T03:47:57;25.20;34.00
21085;DHT22;72320;50.082;20.000;2024-02-23T03:50:23;25.10;34.10
21085;DHT22;72320;50.082;20.000;2024-02-23T03:52:49;25.10;34.20
21085;DHT22;72320;50.082;20.000;2024-02-23T03:55:15;25.10;34.30
21085;DHT22;72320;50.082;20.000;2024-02-23T03:57:41;25.00;34.10
21085;DHT22;72320;50.082;20.000;2024-02-23T04:00:06;25.00;34.10
21085;DHT22;72320;50.082;20.000;2024-02-23T04:02:34;25.10;34.10
21085;DHT22;72320;50.082;20.000;2024-02-23T04:05:00;25.10;33.80
21085;DHT22;72320;50.082;20.000;2024-02-23T04:07:26;25.20;33.80
21085;DHT22;72320;50.082;20.000;2024-02-23T04:09:51;25.20;33.70
21085;DHT22;72320;50.082;20.000;2024-02-23T04:12:29;25.20;33.80
21085;DHT22;72320;50.082;20.000;2024-02-23T04:14:56;25.20;34.10
21085;DHT22;72320;50.082;20.000;2024-02-23T04:17:22;25.20;34.60
21085;DHT22;72320;50.082;20.000;2024-02-23T04:19:48;25.10;34.50
21085;DHT22;72320;50.082;20.000;2024-02-23T04:22:13;25.10;34.70
21085;DHT22;72320;50.082;20.000;2024-02-23T04:24:39;25.10;34.90
21085;DHT22;72320;50.082;20.000;2024-02-23T04:27:06;25.00;35.30
21085;DHT22;72320;50.082;20.000;2024-02-23T04:29:34;25.00;35.30
21085;DHT22;72320;50.082;20.000;2024-02-23T04:32:00;24.90;35.50
21085;DHT22;72320;50.082;20.000;2024-02-23T04:34:30;24.90;35.70
21085;DHT22;72320;50.082;20.000;2024-02-23T04:36:56;24.90;35.70
21085;DHT22;72320;50.082;20.000;2024-02-23T04:39:22;24.90;36.10
21085;DHT22;72320;50.082;20.000;2024-02-23T04:41:48;24.90;36.10
21085;DHT22;72320;50.082;20.000;2024-02-23T04:44:13;24.80;36.30
21085;DHT22;72320;50.082;20.000;2024-02-23T04:46:39;24.80;36.50
21085;DHT22;72320;50.082;20.000;2024-02-23T04:49:05;24.80;36.60
21085;DHT22;72320;50.082;20.000;2024-02-23T04:51:31;24.80;36.60
21085;DHT22;72320;50.082;20.000;2024-02-23T04:53:56;24.80;37.10
21085;DHT22;72320;50.082;20.000;2024-02-23T04:56:22;24.80;37.10
21085;DHT22;72320;50.082;20.000;2024-02-23T04:58:48;24.80;36.50
21085;DHT22;72320;50.082;20.000;2024-02-23T05:01:15;24.80;36.40
21085;DHT22;72320;50.082;20.000;2024-02-23T05:03:40;24.80;37.00
21085;DHT22;72320;50.082;20.000;2024-02-23T05:06:06;24.80;37.10
21085;DHT22;72320;50.082;20.000;2024-02-23T05:08:32;24.80;36.90
21085;DHT22;72320;50.082;20.000;2024-02-23T05:10:58;24.80;36.50
21085;DHT22;72320;50.082;20.000;2024-02-23T05:13:23;24.80;36.40
21085;DHT22;72320;50.082;20.000;2024-02-23T05:15:50;24.80;36.80
21085;DHT22;72320;50.082;20.000;2024-02-23T05:18:16;24.80;37.30
21085;DHT22;72320;50.082;20.000;2024-02-23T05:20:42;24.80;37.60
21085;DHT22;72320;50.082;20.000;2024-02-23T05:23:08;24.80;37.60
21085;DHT22;72320;50.082;20.000;2024-02-23T05:25:34;24.80;37.60
21085;DHT22;72320;50.082;20.000;2024-02-23T05:28:00;24.80;38.00
21085;DHT22;72320;50.082;20.000;2024-02-23T05:30:26;24.80;38.10
21085;DHT22;72320;50.082;20.000;2024-02-23T05:32:57;24.80;38.20
21085;DHT22;72320;50.082;20.000;2024-02-23T05:35:29;24.80;38.40
21085;DHT22;72320;50.082;20.000;2024-02-23T05:37:55;24.70;38.40
21085;DHT22;72320;50.082;20.000;2024-02-23T05:40:21;24.70;38.50
21085;DHT22;72320;50.082;20.000;2024-02-23T05:42:46;24.70;38.60
21085;DHT22;72320;50.082;20.000;2024-02-23T05:45:12;24.70;38.80
21085;DHT22;72320;50.082;20.000;2024-02-23T05:47:41;24.70;38.70
21085;DHT22;72320;50.082;20.000;2024-02-23T05:50:07;24.70;38.90
21085;DHT22;72320;50.082;20.000;2024-02-23T05:52:34;24.70;38.90
21085;DHT22;72320;50.082;20.000;2024-02-23T05:55:02;24.70;39.00
21085;DHT22;72320;50.082;20.000;2024-02-23T05:57:29;24.60;38.80
21085;DHT22;72320;50.082;20.000;2024-02-23T05:59:55;24.60;39.10
21085;DHT22;72320;50.082;20.000;2024-02-23T06:02:24;24.60;39.10
21085;DHT22;72320;50.082;20.000;2024-02-23T06:04:50;24.60;39.60
21085;DHT22;72320;50.082;20.000;2024-02-23T06:07:16;24.60;40.00
21085;DHT22;72320;50.082;20.000;2024-02-23T06:09:42;24.60;39.80
21085;DHT22;72320;50.082;20.000;2024-02-23T06:12:09;24.50;39.90
21085;DHT22;72320;50.082;20.000;2024-02-23T06:14:35;24.50;40.10
21085;DHT22;72320;50.082;20.000;2024-02-23T06:17:02;24.50;40.50
21085;DHT22;72320;50.082;20.000;2024-02-23T06:19:29;24.50;40.60
21085;DHT22;72320;50.082;20.000;2024-02-23T06:21:54;24.50;41.00
21085;DHT22;72320;50.082;20.000;2024-02-23T06:24:20;24.40;41.20
21085;DHT22;72320;50.082;20.000;2024-02-23T06:26:46;24.50;41.10
21085;DHT22;72320;50.082;20.000;2024-02-23T06:29:14;24.40;41.00
21085;DHT22;72320;50.082;20.000;2024-02-23T06:31:40;24.40;41.20
21085;DHT22;72320;50.082;20.000;2024-02-23T06:34:07;24.40;40.90
21085;DHT22;72320;50.082;20.000;2024-02-23T06:36:33;24.40;40.50
21085;DHT22;72320;50.082;20.000;2024-02-23T06:38:59;24.50;40.90
21085;DHT22;72320;50.082;20.000;2024-02-23T06:41:25;24.50;41.40
21085;DHT22;72320;50.082;20.000;2024-02-23T06:43:51;24.50;40.90
21085;DHT22;72320;50.082;20.000;2024-02-23T06:46:21;24.60;41.30
21085;DHT22;72320;50.082;20.000;2024-02-23T06:48:47;24.60;41.60
21085;DHT22;72320;50.082;20.000;2024-02-23T06:51:13;24.60;41.30
21085;DHT22;72320;50.082;20.000;2024-02-23T06:53:41;24.60;41.20
21085;DHT22;72320;50.082;20.000;2024-02-23T06:56:07;24.60;41.60
21085;DHT22;72320;50.082;20.000;2024-02-23T06:58:33;24.60;41.80
21085;DHT22;72320;50.082;20.000;2024-02-23T07:01:00;24.70;42.20
21085;DHT22;72320;50.082;20.000;2024-02-23T07:03:28;24.80;41.90
21085;DHT22;72320;50.082;20.000;2024-02-23T07:05:55;24.90;42.00
21085;DHT22;72320;50.082;20.000;2024-02-23T07:08:21;25.00;41.90
21085;DHT22;72320;50.082;20.000;2024-02-23T07:10:46;25.00;41.70
21085;DHT22;72320;50.082;20.000;2024-02-23T07:13:12;25.10;41.60
21085;DHT22;72320;50.082;20.000;2024-02-23T07:15:38;25.20;41.10
21085;DHT22;72320;50.082;20.000;2024-02-23T07:18:04;25.10;41.00
21085;DHT22;72320;50.082;20.000;2024-02-23T07:20:30;25.00;40.70
21085;DHT22;72320;50.082;20.000;2024-02-23T07:22:56;25.00;40.70
21085;DHT22;72320;50.082;20.000;2024-02-23T07:25:22;25.00;40.50
21085;DHT22;72320;50.082;20.000;2024-02-23T07:27:48;25.10;40.40
21085;DHT22;72320;50.082;20.000;2024-02-23T07:30:14;25.20;40.40
21085;DHT22;72320;50.082;20.000;2024-02-23T07:32:42;25.30;41.10
21085;DHT22;72320;50.082;20.000;2024-02-23T07:35:09;25.30;41.10
21085;DHT22;72320;50.082;20.000;2024-02-23T07:37:36;25.40;40.60
21085;DHT22;72320;50.082;20.000;2024-02-23T07:40:02;25.40;40.70
21085;DHT22;72320;50.082;20.000;2024-02-23T07:42:29;25.40;40.40
21085;DHT22;72320;50.082;20.000;2024-02-23T07:44:56;25.40;41.00
21085;DHT22;72320;50.082;20.000;2024-02-23T07:47:23;25.40;40.70
21085;DHT22;72320;50.082;20.000;2024-02-23T07:49:49;25.40;40.70
21085;DHT22;72320;50.082;20.000;2024-02-23T07:52:15;25.40;40.10
21085;DHT22;72320;50.082;20.000;2024-02-23T07:54:41;25.50;40.10
21085;DHT22;72320;50.082;20.000;2024-02-23T07:57:07;25.50;40.30
21085;DHT22;72320;50.082;20.000;2024-02-23T07:59:33;25.50;40.60
21085;DHT22;72320;50.082;20.000;2024-02-23T08:01:59;25.50;40.50
21085;DHT22;72320;50.082;20.000;2024-02-23T08:04:24;25.50;40.90
21085;DHT22;72320;50.082;20.000;2024-02-23T08:06:50;25.50;41.10
21085;DHT22;72320;50.082;20.000;2024-02-23T08:09:19;25.40;40.90
21085;DHT22;72320;50.082;20.000;2024-02-23T08:11:47;25.40;41.30
21085;DHT22;72320;50.082;20.000;2024-02-23T08:14:16;25.40;41.40
21085;DHT22;72320;50.082;20.000;2024-02-23T08:16:42;25.30;41.40
21085;DHT22;72320;50.082;20.000;2024-02-23T08:19:08;25.40;41.60
21085;DHT22;72320;50.082;20.000;2024-02-23T08:21:33;25.30;41.60
21085;DHT22;72320;50.082;20.000;2024-02-23T08:23:59;25.20;41.50
21085;DHT22;72320;50.082;20.000;2024-02-23T08:26:25;25.10;41.50
21085;DHT22;72320;50.082;20.000;2024-02-23T08:28:51;24.90;41.50
21085;DHT22;72320;50.082;20.000;2024-02-23T08:31:17;24.80;41.60
21085;DHT22;72320;50.082;20.000;2024-02-23T08:33:42;24.40;42.20
21085;DHT22;72320;50.082;20.000;2024-02-23T08:36:09;24.00;42.70
21085;DHT22;72320;50.082;20.000;2024-02-23T08:38:35;23.80;43.10
21085;DHT22;72320;50.082;20.000;2024-02-23T08:41:02;23.80;43.20
21085;DHT22;72320;50.082;20.000;2024-02-23T08:43:28;23.80;43.20
21085;DHT22;72320;50.082;20.000;2024-02-23T08:45:54;23.80;43.60
21085;DHT22;72320;50.082;20.000;2024-02-23T08:48:19;23.70;43.80
21085;DHT22;72320;50.082;20.000;2024-02-23T08:50:45;23.70;44.60
21085;DHT22;72320;50.082;20.000;2024-02-23T08:53:11;23.60;44.10
21085;DHT22;72320;50.082;20.000;2024-02-23T08:55:37;23.60;44.00
21085;DHT22;72320;50.082;20.000;2024-02-23T08:58:02;23.60;44.00
21085;DHT22;72320;50.082;20.000;2024-02-23T09:00:28;23.60;44.00
21085;DHT22;72320;50.082;20.000;2024-02-23T09:02:54;23.70;44.10
21085;DHT22;72320;50.082;20.000;2024-02-23T09:05:20;23.80;43.90
21085;DHT22;72320;50.082;20.000;2024-02-23T09:07:46;23.90;44.20
21085;DHT22;72320;50.082;20.000;2024-02-23T09:10:12;23.80;44.20
21085;DHT22;72320;50.082;20.000;2024-02-23T09:12:38;23.70;44.40
21085;DHT22;72320;50.082;20.000;2024-02-23T09:15:03;23.60;44.50
21085;DHT22;72320;50.082;20.000;2024-02-23T09:17:30;23.60;44.50
21085;DHT22;72320;50.082;20.000;2024-02-23T09:19:57;23.50;44.70
21085;DHT22;72320;50.082;20.000;2024-02-23T09:22:23;23.40;45.10
21085;DHT22;72320;50.082;20.000;2024-02-23T09:24:49;23.30;45.00
21085;DHT22;72320;50.082;20.000;2024-02-23T09:27:15;23.30;45.30
21085;DHT22;72320;50.082;20.000;2024-02-23T09:29:41;23.40;44.90
21085;DHT22;72320;50.082;20.000;2024-02-23T09:32:07;23.60;45.00
21085;DHT22;72320;50.082;20.000;2024-02-23T09:34:33;23.60;44.80
21085;DHT22;72320;50.082;20.000;2024-02-23T09:36:59;23.50;45.20
21085;DHT22;72320;50.082;20.000;2024-02-23T09:39:25;23.40;45.50
21085;DHT22;72320;50.082;20.000;2024-02-23T09:41:55;23.30;45.90
21085;DHT22;72320;50.082;20.000;2024-02-23T09:44:32;23.30;45.90
21085;DHT22;72320;50.082;20.000;2024-02-23T09:47:00;23.20;46.10
21085;DHT22;72320;50.082;20.000;2024-02-23T09:49:42;23.30;45.60
21085;DHT22;72320;50.082;20.000;2024-02-23T09:52:12;23.30;45.90
21085;DHT22;72320;50.082;20.000;2024-02-23T09:54:38;23.20;46.00
21085;DHT22;72320;50.082;20.000;2024-02-23T09:57:06;23.30;45.50
21085;DHT22;72320;50.082;20.000;2024-02-23T09:59:34;23.20;46.10
21085;DHT22;72320;50.082;20.000;2024-02-23T10:02:05;23.20;46.10
21085;DHT22;72320;50.082;20.000;2024-02-23T10:04:37;23.20;46.10
21085;DHT22;72320;50.082;20.000;2024-02-23T10:07:05;23.30;45.90
21085;DHT22;72320;50.082;20.000;2024-02-23T10:09:32;23.10;46.10
21085;DHT22;72320;50.082;20.000;2024-02-23T10:11:58;23.20;46.10
21085;DHT22;72320;50.082;20.000;2024-02-23T10:14:24;23.30;46.30
21085;DHT22;72320;50.082;20.000;2024-02-23T10:16:50;23.30;45.90
21085;DHT22;72320;50.082;20.000;2024-02-23T10:19:19;23.40;46.10
21085;DHT22;72320;50.082;20.000;2024-02-23T10:21:45;23.60;45.70
21085;DHT22;72320;50.082;20.000;2024-02-23T10:24:12;23.70;45.80
21085;DHT22;72320;50.082;20.000;2024-02-23T10:26:41;23.70;45.90
21085;DHT22;72320;50.082;20.000;2024-02-23T10:29:07;23.80;45.80
21085;DHT22;72320;50.082;20.000;2024-02-23T10:31:37;23.80;45.80
21085;DHT22;72320;50.082;20.000;2024-02-23T10:34:05;23.80;45.60
21085;DHT22;72320;50.082;20.000;2024-02-23T10:36:42;24.00;45.80
21085;DHT22;72320;50.082;20.000;2024-02-23T10:39:08;24.00;45.40
21085;DHT22;72320;50.082;20.000;2024-02-23T10:41:35;24.20;44.80
21085;DHT22;72320;50.082;20.000;2024-02-23T10:44:03;24.30;45.20
21085;DHT22;72320;50.082;20.000;2024-02-23T10:46:31;24.40;45.30
21085;DHT22;72320;50.082;20.000;2024-02-23T10:48:58;24.60;44.40
21085;DHT22;72320;50.082;20.000;2024-02-23T10:51:24;24.80;44.20
21085;DHT22;72320;50.082;20.000;2024-02-23T10:53:50;24.90;43.90
21085;DHT22;72320;50.082;20.000;2024-02-23T10:56:18;25.10;43.30
21085;DHT22;72320;50.082;20.000;2024-02-23T10:58:45;25.40;42.60
21085;DHT22;72320;50.082;20.000;2024-02-23T11:01:11;25.50;41.90
21085;DHT22;72320;50.082;20.000;2024-02-23T11:03:40;25.50;43.20
21085;DHT22;72320;50.082;20.000;2024-02-23T11:06:12;25.60;42.50
21085;DHT22;72320;50.082;20.000;2024-02-23T11:08:38;25.50;43.40
21085;DHT22;72320;50.082;20.000;2024-02-23T11:11:07;25.50;42.80
21085;DHT22;72320;50.082;20.000;2024-02-23T11:13:39;25.60;42.20
21085;DHT22;72320;50.082;20.000;2024-02-23T11:16:06;25.60;42.80
21085;DHT22;72320;50.082;20.000;2024-02-23T11:18:35;25.70;42.20
21085;DHT22;72320;50.082;20.000;2024-02-23T11:21:04;25.80;41.40
21085;DHT22;72320;50.082;20.000;2024-02-23T11:23:52;25.80;41.80
21085;DHT22;72320;50.082;20.000;2024-02-23T11:26:19;25.80;41.20
21085;DHT22;72320;50.082;20.000;2024-02-23T11:28:51;25.90;41.40
21085;DHT22;72320;50.082;20.000;2024-02-23T11:31:19;25.90;41.20
21085;DHT22;72320;50.082;20.000;2024-02-23T11:33:55;25.80;41.10
21085;DHT22;72320;50.082;20.000;2024-02-23T11:36:23;25.80;40.90
21085;DHT22;72320;50.082;20.000;2024-02-23T11:38:53;25.80;40.70
21085;DHT22;72320;50.082;20.000;2024-02-23T11:41:22;25.70;40.90
21085;DHT22;72320;50.082;20.000;2024-02-23T11:43:53;25.60;40.90
21085;DHT22;72320;50.082;20.000;2024-02-23T11:46:26;25.50;40.60
21085;DHT22;72320;50.082;20.000;2024-02-23T11:48:52;25.50;41.10
21085;DHT22;72320;50.082;20.000;2024-02-23T11:51:21;25.60;40.40
21085;DHT22;72320;50.082;20.000;2024-02-23T11:53:48;25.60;40.80
21085;DHT22;72320;50.082;20.000;2024-02-23T11:56:15;25.60;40.50
21085;DHT22;72320;50.082;20.000;2024-02-23T11:58:42;25.60;40.50
21085;DHT22;72320;50.082;20.000;2024-02-23T12:01:09;25.60;40.40
21085;DHT22;72320;50.082;20.000;2024-02-23T12:03:34;25.70;40.10
21085;DHT22;72320;50.082;20.000;2024-02-23T12:06:01;25.80;40.10
21085;DHT22;72320;50.082;20.000;2024-02-23T12:08:28;25.60;40.00
21085;DHT22;72320;50.082;20.000;2024-02-23T12:11:03;25.60;39.70
21085;DHT22;72320;50.082;20.000;2024-02-23T12:13:30;25.70;39.70
21085;DHT22;72320;50.082;20.000;2024-02-23T12:15:57;25.70;39.90
21085;DHT22;72320;50.082;20.000;2024-02-23T12:18:23;25.70;39.80
21085;DHT22;72320;50.082;20.000;2024-02-23T12:20:52;25.80;40.40
21085;DHT22;72320;50.082;20.000;2024-02-23T12:23:18;26.00;39.60
21085;DHT22;72320;50.082;20.000;2024-02-23T12:25:56;26.10;39.20
21085;DHT22;72320;50.082;20.000;2024-02-23T12:28:22;26.10;39.30
21085;DHT22;72320;50.082;20.000;2024-02-23T12:31:04;26.10;39.30
21085;DHT22;72320;50.082;20.000;2024-02-23T12:33:32;26.20;39.30
21085;DHT22;72320;50.082;20.000;2024-02-23T12:36:00;26.30;39.00
21085;DHT22;72320;50.082;20.000;2024-02-23T12:38:28;26.30;39.20
21085;DHT22;72320;50.082;20.000;2024-02-23T12:40:54;26.20;39.20
21085;DHT22;72320;50.082;20.000;2024-02-23T12:43:21;26.20;39.10
21085;DHT22;72320;50.082;20.000;2024-02-23T12:45:52;26.20;39.20
21085;DHT22;72320;50.082;20.000;2024-02-23T12:48:22;26.20;39.20
21085;DHT22;72320;50.082;20.000;2024-02-23T12:50:49;26.10;39.30
21085;DHT22;72320;50.082;20.000;2024-02-23T12:53:31;26.20;39.30
21085;DHT22;72320;50.082;20.000;2024-02-23T12:56:06;26.20;38.80
21085;DHT22;72320;50.082;20.000;2024-02-23T12:58:38;26.20;39.10
21085;DHT22;72320;50.082;20.000;2024-02-23T13:01:06;26.20;39.10
21085;DHT22;72320;50.082;20.000;2024-02-23T13:03:32;26.20;38.90
21085;DHT22;72320;50.082;20.000;2024-02-23T13:06:00;26.30;39.40
21085;DHT22;72320;50.082;20.000;2024-02-23T13:08:27;26.40;39.40
21085;DHT22;72320;50.082;20.000;2024-02-23T13:10:54;26.40;39.20
21085;DHT22;72320;50.082;20.000;2024-02-23T13:13:20;26.50;39.10
21085;DHT22;72320;50.082;20.000;2024-02-23T13:15:48;26.40;39.40
21085;DHT22;72320;50.082;20.000;2024-02-23T13:18:16;26.30;39.40
21085;DHT22;72320;50.082;20.000;2024-02-23T13:20:42;26.20;39.00
21085;DHT22;72320;50.082;20.000;2024-02-23T13:23:09;26.30;39.00
21085;DHT22;72320;50.082;20.000;2024-02-23T13:25:37;26.30;38.90
21085;DHT22;72320;50.082;20.000;2024-02-23T13:28:07;26.40;38.80
21085;DHT22;72320;50.082;20.000;2024-02-23T13:30:34;26.50;38.80
21085;DHT22;72320;50.082;20.000;2024-02-23T13:33:02;26.50;38.90
21085;DHT22;72320;50.082;20.000;2024-02-23T13:35:28;26.60;39.10
21085;DHT22;72320;50.082;20.000;2024-02-23T13:37:54;26.60;38.80
21085;DHT22;72320;50.082;20.000;2024-02-23T13:40:22;26.50;38.60
21085;DHT22;72320;50.082;20.000;2024-02-23T13:42:48;26.50;38.70
21085;DHT22;72320;50.082;20.000;2024-02-23T13:45:15;26.50;38.60
21085;DHT22;72320;50.082;20.000;2024-02-23T13:47:42;26.40;38.80
21085;DHT22;72320;50.082;20.000;2024-02-23T13:50:23;26.30;38.60
21085;DHT22;72320;50.082;20.000;2024-02-23T13:52:49;26.30;38.90
21085;DHT22;72320;50.082;20.000;2024-02-23T13:55:15;26.30;38.80
21085;DHT22;72320;50.082;20.000;2024-02-23T13:57:41;26.30;38.90
21085;DHT22;72320;50.082;20.000;2024-02-23T14:00:07;26.40;38.90
21085;DHT22;72320;50.082;20.000;2024-02-23T14:02:37;26.40;39.00
21085;DHT22;72320;50.082;20.000;2024-02-23T14:05:06;26.40;38.80
21085;DHT22;72320;50.082;20.000;2024-02-23T14:07:33;26.40;38.50
21085;DHT22;72320;50.082;20.000;2024-02-23T14:09:59;26.50;38.80
21085;DHT22;72320;50.082;20.000;2024-02-23T14:12:25;26.40;38.90
21085;DHT22;72320;50.082;20.000;2024-02-23T14:14:51;26.40;38.40
21085;DHT22;72320;50.082;20.000;2024-02-23T14:17:17;26.40;38.60
21085;DHT22;72320;50.082;20.000;2024-02-23T14:19:43;26.30;38.70
21085;DHT22;72320;50.082;20.000;2024-02-23T14:22:09;26.30;38.90
21085;DHT22;72320;50.082;20.000;2024-02-23T14:24:35;26.40;39.00
21085;DHT22;72320;50.082;20.000;2024-02-23T14:27:01;26.30;39.10
21085;DHT22;72320;50.082;20.000;2024-02-23T14:29:27;26.40;39.20
21085;DHT22;72320;50.082;20.000;2024-02-23T14:31:53;26.40;39.10
21085;DHT22;72320;50.082;20.000;2024-02-23T14:34:19;26.30;38.80
21085;DHT22;72320;50.082;20.000;2024-02-23T14:36:47;26.20;39.00
21085;DHT22;72320;50.082;20.000;2024-02-23T14:39:13;26.20;39.40
21085;DHT22;72320;50.082;20.000;2024-02-23T14:41:39;26.10;39.90
21085;DHT22;72320;50.082;20.000;2024-02-23T14:44:05;26.20;40.10
21085;DHT22;72320;50.082;20.000;2024-02-23T14:46:31;26.10;39.70
21085;DHT22;72320;50.082;20.000;2024-02-23T14:48:56;26.10;39.40
21085;DHT22;72320;50.082;20.000;2024-02-23T14:51:22;26.00;39.40
21085;DHT22;72320;50.082;20.000;2024-02-23T14:53:48;25.90;39.70
21085;DHT22;72320;50.082;20.000;2024-02-23T14:56:14;25.70;39.90
21085;DHT22;72320;50.082;20.000;2024-02-23T14:58:40;25.30;40.30
21085;DHT22;72320;50.082;20.000;2024-02-23T15:01:06;25.10;40.60
21085;DHT22;72320;50.082;20.000;2024-02-23T15:03:32;25.10;40.90
21085;DHT22;72320;50.082;20.000;2024-02-23T15:05:59;24.90;41.20
21085;DHT22;72320;50.082;20.000;2024-02-23T15:08:26;24.70;41.70
21085;DHT22;72320;50.082;20.000;2024-02-23T15:10:53;24.60;42.10
21085;DHT22;72320;50.082;20.000;2024-02-23T15:13:19;24.60;42.10
21085;DHT22;72320;50.082;20.000;2024-02-23T15:15:45;24.40;42.50
21085;DHT22;72320;50.082;20.000;2024-02-23T15:18:11;24.30;42.70
21085;DHT22;72320;50.082;20.000;2024-02-23T15:20:37;24.20;42.80
21085;DHT22;72320;50.082;20.000;2024-02-23T15:23:03;24.30;42.80
21085;DHT22;72320;50.082;20.000;2024-02-23T15:25:30;24.30;42.80
21085;DHT22;72320;50.082;20.000;2024-02-23T15:27:55;24.10;43.20
21085;DHT22;72320;50.082;20.000;2024-02-23T15:30:23;24.20;43.30
21085;DHT22;72320;50.082;20.000;2024-02-23T15:32:50;24.20;43.30
21085;DHT22;72320;50.082;20.000;2024-02-23T15:35:16;24.00;43.70
21085;DHT22;72320;50.082;20.000;2024-02-23T15:37:43;23.80;44.20
21085;DHT22;72320;50.082;20.000;2024-02-23T15:40:09;23.60;44.40
21085;DHT22;72320;50.082;20.000;2024-02-23T15:42:35;23.40;44.80
21085;DHT22;72320;50.082;20.000;2024-02-23T15:45:04;23.30;44.90
21085;DHT22;72320;50.082;20.000;2024-02-23T15:47:34;23.30;45.10
21085;DHT22;72320;50.082;20.000;2024-02-23T15:49:59;23.30;45.20
21085;DHT22;72320;50.082;20.000;2024-02-23T15:52:26;23.40;45.10
21085;DHT22;72320;50.082;20.000;2024-02-23T15:54:52;23.30;45.20